Flight Track Log - Related Links

Times and Time Zones

All times are in EDT time to prevent confusion due to time zone crossing. See the DLH3316 flight status page for this flight to view local times or setup timezone preferences in your user account.

Time Position Orientation Groundspeed Altitude Reporting Facility
EDT Latitude Longitude Course Direction KTS MPH feet Rate Location/Type
Tue 04:53:22 AM 52.5590 13.3100 53° Northeast 9 10  Level FlightAware ADS-B
Tue 04:53:55 AM 52.5600 13.3100 360° North 4 5 298 Level FlightAware ADS-B
Tue 04:54:52 AM 52.5600 13.3090 270° West 2 2 389 Level FlightAware ADS-B
Tue 04:55:13 AM 52.5590 13.3020 257° West 96 110 824 Level FlightAware ADS-B
Tue 04:55:43 AM 52.5560 13.2690 262° West 161 185 700 1,733 Climbing FlightAware ADS-B
Tue 04:55:58 AM 52.5550 13.2510 265° West 168 193 1,300 2,308 Climbing FlightAware ADS-B
Tue 04:56:22 AM 52.5520 13.2170 262° West 189 217 2,200 2,034 Climbing FlightAware ADS-B
Tue 04:56:57 AM 52.5470 13.1640 261° West 222 255 3,300 2,400 Climbing FlightAware ADS-B
Tue 04:57:22 AM 52.5430 13.1210 261° West 222 255 4,600 2,679 Climbing FlightAware ADS-B
Tue 04:57:53 AM 52.5300 13.0710 247° West 238 274 5,800 2,200 Climbing FlightAware ADS-B
Tue 04:58:22 AM 52.5100 13.0190 238° Southwest 277 319 6,800 2,556 Climbing FlightAware ADS-B
Tue 04:58:47 AM 52.4920 12.9740 237° Southwest 282 325 8,100 3,214 Climbing FlightAware ADS-B
Tue 04:59:18 AM 52.4700 12.9190 237° Southwest 289 333 9,800 2,333 Climbing FlightAware ADS-B
Tue 04:59:59 AM 52.4380 12.8420 236° Southwest 326 375 10,900 1,807 Climbing FlightAware ADS-B
Tue 05:00:41 AM 52.4010 12.7550 235° Southwest 355 409 12,300 2,333 Climbing FlightAware ADS-B
Tue 05:00:53 AM 52.3840 12.7270 225° Southwest 364 419 13,000 2,885 Climbing FlightAware ADS-B
Tue 05:01:33 AM 52.3300 12.6550 219° Southwest 376 433 14,800 2,714 Climbing FlightAware ADS-B
Tue 05:02:17 AM 52.2680 12.5740 219° Southwest 377 434 16,800 2,471 Climbing FlightAware ADS-B
Tue 05:02:58 AM 52.2130 12.5000 220° Southwest 395 455 18,300 2,118 Climbing FlightAware ADS-B
Tue 05:03:42 AM 52.1470 12.4140 219° Southwest 409 471 19,800 2,071 Climbing FlightAware ADS-B
Tue 05:04:22 AM 52.0870 12.3360 219° Southwest 416 479 21,200 2,025 Climbing FlightAware ADS-B
Tue 05:05:02 AM 52.0280 12.2580 219° Southwest 418 481 22,500 1,818 Climbing FlightAware ADS-B
Tue 05:05:28 AM 51.9880 12.2060 219° Southwest 432 497 23,200 1,517 Climbing FlightAware ADS-B
Tue 05:06:29 AM 51.8960 12.0860 219° Southwest 440 506 24,700 1,576 Climbing FlightAware ADS-B
Tue 05:07:07 AM 51.8280 11.9990 218° Southwest 454 522 25,800 1,590 Climbing FlightAware ADS-B
Tue 05:07:52 AM 51.7530 11.9020 219° Southwest 455 524 26,900 1,412 Climbing FlightAware ADS-B
Tue 05:08:32 AM 51.6890 11.8200 218° Southwest 459 528 27,800 1,465 Climbing FlightAware ADS-B
Tue 05:09:18 AM 51.6100 11.7190 218° Southwest 469 540 29,000 1,465 Climbing FlightAware ADS-B
Tue 05:09:58 AM 51.5450 11.6360 218° Southwest 469 540 29,900 1,571 Climbing FlightAware ADS-B
Tue 05:10:42 AM 51.4600 11.5540 211° Southwest 467 537 31,200 1,485 Climbing FlightAware ADS-B
Tue 05:11:35 AM 51.3490 11.5060 195° South 461 531 32,300 1,212 Climbing FlightAware ADS-B
Tue 05:12:21 AM 51.2550 11.4690 194° South 460 529 33,200 1,241 Climbing FlightAware ADS-B
Tue 05:13:02 AM 51.1680 11.4360 193° South 467 537 34,100 1,125 Climbing FlightAware ADS-B
Tue 05:13:41 AM 51.0870 11.4040 194° South 467 537 34,700 1,000 Climbing FlightAware ADS-B
Tue 05:14:26 AM 50.9910 11.3670 194° South 466 536 35,500 1,050 Climbing FlightAware ADS-B
Tue 05:15:01 AM 50.9250 11.3410 194° South 465 535 36,100 940 Climbing FlightAware ADS-B
Tue 05:15:49 AM 50.8180 11.3000 194° South 466 536 36,800 581 Climbing FlightAware ADS-B
Tue 05:16:34 AM 50.7250 11.2640 194° South 463 533 37,000 152 Climbing FlightAware ADS-B
Tue 05:17:08 AM 50.6520 11.2320 196° South 463 533 37,000  Level FlightAware ADS-B
Tue 05:17:55 AM 50.5660 11.1560 209° Southwest 462 532 37,000  Level FlightAware ADS-B
Tue 05:18:38 AM 50.4900 11.0800 212° Southwest 462 532 37,000  Level FlightAware ADS-B
Tue 05:19:19 AM 50.4140 11.0020 213° Southwest 462 532 37,000  Level FlightAware ADS-B
Tue 05:20:03 AM 50.3350 10.9220 213° Southwest 463 533 37,000  Level FlightAware ADS-B
Tue 05:20:41 AM 50.2660 10.8530 213° Southwest 463 533 37,000  Level FlightAware ADS-B
Tue 05:21:27 AM 50.1830 10.7690 213° Southwest 466 536 37,000  Level FlightAware ADS-B
Tue 05:22:07 AM 50.1120 10.6990 212° Southwest 467 537 37,000  Level FlightAware ADS-B
Tue 05:22:51 AM 50.0320 10.6180 213° Southwest 468 539 37,000  Level FlightAware ADS-B
Tue 05:23:29 AM 49.9620 10.5490 212° Southwest 468 539 37,000  Level FlightAware ADS-B
Tue 05:24:11 AM 49.8900 10.4770 213° Southwest 468 539 37,000  Level FlightAware ADS-B
Tue 05:24:52 AM 49.8120 10.4000 213° Southwest 469 540 37,000  Level FlightAware ADS-B
Tue 05:25:40 AM 49.7430 10.3330 212° Southwest 470 541 37,000  Level FlightAware ADS-B
Tue 05:26:16 AM 49.6590 10.2500 213° Southwest 473 544 37,000  Level FlightAware ADS-B
Tue 05:27:01 AM 49.5820 10.1640 216° Southwest 467 537 37,000  Level FlightAware ADS-B
Tue 05:27:41 AM 49.5100 10.0790 217° Southwest 468 539 37,000  Level FlightAware ADS-B
Tue 05:28:21 AM 49.4420 10.0000 217° Southwest 469 540 37,000  Level FlightAware ADS-B
Tue 05:29:06 AM 49.3640 9.9090 217° Southwest 470 541 37,000  Level FlightAware ADS-B
Tue 05:29:46 AM 49.3080 9.8440 217° Southwest 470 541 37,000  Level FlightAware ADS-B
Tue 05:30:46 AM 49.1920 9.7090 217° Southwest 470 541 37,000  Level FlightAware ADS-B
Tue 05:31:21 AM 49.1240 9.6300 217° Southwest 469 540 37,000  Level FlightAware ADS-B
Tue 05:32:06 AM 49.0470 9.5420 217° Southwest 470 541 37,000  Level FlightAware ADS-B
Tue 05:32:51 AM 48.9650 9.4490 217° Southwest 484 557 37,000  Level FlightAware ADS-B
Tue 05:33:30 AM 48.9030 9.3780 217° Southwest 485 558 37,000  Level FlightAware ADS-B
Tue 05:34:14 AM 48.8250 9.2890 217° Southwest 485 558 37,000  Level FlightAware ADS-B
Tue 05:34:59 AM 48.7380 9.1910 217° Southwest 485 558 37,000  Level FlightAware ADS-B
Tue 05:35:36 AM 48.6710 9.1150 217° Southwest 483 556 37,000  Level FlightAware ADS-B
Tue 05:36:21 AM 48.5910 9.0250 217° Southwest 481 554 37,000  Level FlightAware ADS-B
Tue 05:37:02 AM 48.5160 8.9420 216° Southwest 481 554 37,000  Level FlightAware ADS-B
Tue 05:37:46 AM 48.4370 8.8530 217° Southwest 477 549 37,000  Level FlightAware ADS-B
Tue 05:38:27 AM 48.3660 8.7750 216° Southwest 461 531 37,000  Level FlightAware ADS-B
Tue 05:39:06 AM 48.2970 8.6990 216° Southwest 464 534 37,000  Level FlightAware ADS-B
Tue 05:39:51 AM 48.2190 8.6130 216° Southwest 464 534 37,000  Level FlightAware ADS-B
Tue 05:40:32 AM 48.1550 8.5420 217° Southwest 470 541 37,000  Level FlightAware ADS-B
Tue 05:41:14 AM 48.0780 8.4590 216° Southwest 474 545 37,000  Level FlightAware ADS-B
Tue 05:41:54 AM 48.0040 8.3770 217° Southwest 478 550 37,000  Level FlightAware ADS-B
Tue 05:42:39 AM 47.9240 8.2910 216° Southwest 480 552 37,000  Level FlightAware ADS-B
Tue 05:43:19 AM 47.8500 8.2150 215° Southwest 479 551 37,000  Level FlightAware ADS-B
Tue 05:44:13 AM 47.7600 8.1260 214° Southwest 472 543 37,000  Level FlightAware ADS-B
Tue 05:44:54 AM 47.6820 8.0470 214° Southwest 478 550 37,000  Level FlightAware ADS-B
Tue 05:45:41 AM 47.5880 7.9540 214° Southwest 475 547 37,000  Level FlightAware ADS-B
Tue 05:46:22 AM 47.5140 7.8810 214° Southwest 474 545 37,000  Level FlightAware ADS-B
Tue 05:47:04 AM 47.4400 7.8080 214° Southwest 471 542 37,000  Level FlightAware ADS-B
Tue 05:47:49 AM 47.3590 7.7280 214° Southwest 469 540 37,000  Level FlightAware ADS-B
Tue 05:48:30 AM 47.2830 7.6540 213° Southwest 466 536 37,000  Level FlightAware ADS-B
Tue 05:49:14 AM 47.2040 7.5780 213° Southwest 466 536 37,000  Level FlightAware ADS-B
Tue 05:49:54 AM 47.1320 7.5080 213° Southwest 466 536 37,000  Level FlightAware ADS-B
Tue 05:50:37 AM 47.0540 7.4320 214° Southwest 466 536 37,000  Level FlightAware ADS-B
Tue 05:51:15 AM 46.9880 7.3690 213° Southwest 466 536 37,000  Level FlightAware ADS-B
Tue 05:51:58 AM 46.9080 7.2920 213° Southwest 466 536 37,000  Level FlightAware ADS-B
Tue 05:52:43 AM 46.8270 7.2140 213° Southwest 465 535 37,000  Level FlightAware ADS-B
Tue 05:53:24 AM 46.7550 7.1460 213° Southwest 465 535 37,000  Level FlightAware ADS-B
Tue 05:54:08 AM 46.6740 7.0680 213° Southwest 465 535 37,000  Level FlightAware ADS-B
Tue 05:54:49 AM 46.6010 6.9990 213° Southwest 464 534 37,000  Level FlightAware ADS-B
Tue 05:55:45 AM 46.5010 6.9040 213° Southwest 463 533 37,000  Level FlightAware ADS-B
Tue 05:56:25 AM 46.4280 6.8360 213° Southwest 464 534 37,000  Level FlightAware ADS-B
Tue 05:57:08 AM 46.3530 6.7660 213° Southwest 464 534 37,000  Level FlightAware ADS-B
Tue 05:57:48 AM 46.2780 6.6950 213° Southwest 465 535 37,000  Level FlightAware ADS-B
Tue 05:58:30 AM 46.2040 6.6270 212° Southwest 466 536 37,000  Level FlightAware ADS-B
Tue 05:59:16 AM 46.1190 6.5480 213° Southwest 465 535 37,000  Level FlightAware ADS-B
Tue 05:59:54 AM 46.0530 6.4900 211° Southwest 465 535 37,000  Level FlightAware ADS-B
Tue 06:00:39 AM 45.9600 6.4350 202° Southwest 463 533 37,000  Level FlightAware ADS-B
Tue 06:01:19 AM 45.8800 6.3920 201° Southwest 462 532 37,000  Level FlightAware ADS-B
Tue 06:02:00 AM 45.8010 6.3500 200° South 461 531 37,000  Level FlightAware ADS-B
Tue 06:02:41 AM 45.7220 6.3090 200° South 459 528 37,000  Level FlightAware ADS-B
Tue 06:03:25 AM 45.6340 6.2630 200° South 449 517 37,000  Level FlightAware ADS-B
Tue 06:04:05 AM 45.5540 6.2210 200° South 447 514 37,000  Level FlightAware ADS-B
Tue 06:04:50 AM 45.4660 6.1760 200° South 445 512 37,000  Level FlightAware ADS-B
Tue 06:05:41 AM 45.3700 6.1260 200° South 449 517 37,000  Level FlightAware ADS-B
Tue 06:06:25 AM 45.2840 6.0820 200° South 446 513 37,000  Level FlightAware ADS-B
Tue 06:07:15 AM 45.1850 6.0310 200° South 445 512 37,000  Level FlightAware ADS-B
Tue 06:07:55 AM 45.1090 5.9920 200° South 445 512 37,000  Level FlightAware ADS-B
Tue 06:08:43 AM 45.0150 5.9420 201° Southwest 447 514 37,000  Level FlightAware ADS-B
Tue 06:09:19 AM 44.9430 5.9030 201° Southwest 449 517 37,000  Level FlightAware ADS-B
Tue 06:10:05 AM 44.8530 5.8550 201° Southwest 445 512 37,000  Level FlightAware ADS-B
Tue 06:10:49 AM 44.7670 5.8080 201° Southwest 457 526 37,000 69 Level FlightAware ADS-B
Tue 06:11:32 AM 44.6770 5.7600 201° Southwest 457 526 37,100 71 Climbing FlightAware ADS-B
Tue 06:12:13 AM 44.6040 5.7210 201° Southwest 455 524 37,100 -71 Level FlightAware ADS-B
Tue 06:12:57 AM 44.5120 5.6720 201° Southwest 453 521 37,000 -71 Descending FlightAware ADS-B
Tue 06:13:38 AM 44.4360 5.6320 201° Southwest 452 520 37,000  Level FlightAware ADS-B
Tue 06:14:18 AM 44.3540 5.5890 201° Southwest 446 513 37,000  Level FlightAware ADS-B
Tue 06:14:54 AM 44.2870 5.5540 201° Southwest 447 514 37,000  Level FlightAware ADS-B
Tue 06:15:40 AM 44.1950 5.5050 201° Southwest 448 516 37,000  Level FlightAware ADS-B
Tue 06:16:22 AM 44.1190 5.4660 200° South 448 516 37,000  Level FlightAware ADS-B
Tue 06:17:06 AM 44.0280 5.4190 200° South 448 516 37,000  Level FlightAware ADS-B
Tue 06:17:46 AM 43.9570 5.3830 200° South 450 518 37,000  Level FlightAware ADS-B
Tue 06:18:31 AM 43.8700 5.3380 200° South 453 521 37,000  Level FlightAware ADS-B
Tue 06:19:11 AM 43.7850 5.2940 200° South 457 526 37,000  Level FlightAware ADS-B
Tue 06:19:51 AM 43.7040 5.2540 200° South 459 528 37,000 92 Level FlightAware ADS-B
Tue 06:20:16 AM 43.6550 5.2290 200° South 459 528 37,100 74 Climbing FlightAware ADS-B
Tue 06:21:12 AM 43.5450 5.1720 201° Southwest 454 522 37,100 -59 Level FlightAware ADS-B
Tue 06:21:57 AM 43.4620 5.1290 201° Southwest 451 519 37,000 -71 Descending FlightAware ADS-B
Tue 06:22:37 AM 43.3830 5.0870 201° Southwest 448 516 37,000  Level FlightAware ADS-B
Tue 06:23:17 AM 43.3020 5.0440 201° Southwest 447 514 37,000  Level FlightAware ADS-B
Tue 06:24:02 AM 43.2150 4.9980 201° Southwest 446 513 37,000  Level FlightAware ADS-B
Tue 06:24:56 AM 43.1110 4.9450 200° South 446 513 37,000  Level FlightAware ADS-B
Tue 06:25:51 AM 43.0110 4.8930 201° Southwest 440 506 37,000  Level FlightAware ADS-B
Tue 06:26:38 AM 42.9220 4.8160 212° Southwest 448 516 37,000  Level FlightAware ADS-B
Tue 06:27:29 AM 42.8440 4.7430 214° Southwest 449 517 37,000 56 Level FlightAware ADS-B
Tue 06:28:25 AM 42.7690 4.6730 214° Southwest 448 516 37,100 58 Climbing FlightAware ADS-B
Tue 06:29:13 AM 42.6990 4.6080 214° Southwest 448 516 37,100 -59 Level FlightAware ADS-B
Tue 06:30:06 AM 42.5760 4.4900 215° Southwest 444 511 37,000 -73 Descending FlightAware ADS-B
Tue 06:30:35 AM 42.5320 4.4500 214° Southwest 444 511 37,000  Level FlightAware ADS-B
Tue 06:31:20 AM 42.4580 4.3810 215° Southwest 445 512 37,000  Level FlightAware ADS-B
Tue 06:32:05 AM 42.3810 4.3080 215° Southwest 448 516 37,000  Level FlightAware ADS-B
Tue 06:33:11 AM 42.2740 4.2110 214° Southwest 450 518 37,000  Level FlightAware ADS-B
Tue 06:33:57 AM 42.1620 4.1500 202° Southwest 453 521 37,000 65 Level FlightAware ADS-B
Tue 06:34:43 AM 42.0690 4.1080 199° South 449 517 37,100  Climbing FlightAware ADS-B
Tue 06:35:25 AM 41.9870 4.0710 199° South 448 516 37,000 -73 Descending FlightAware ADS-B
Tue 06:36:05 AM 41.9080 4.0360 198° South 446 513 37,000  Level FlightAware ADS-B
Tue 06:36:45 AM 41.8310 4.0010 199° South 445 512 37,000  Level FlightAware ADS-B
Tue 06:37:27 AM 41.7480 3.9640 198° South 446 513 37,000  Level FlightAware ADS-B
Tue 06:38:11 AM 41.6620 3.9260 198° South 446 513 37,000  Level FlightAware ADS-B
Tue 06:38:51 AM 41.5850 3.8920 198° South 449 517 37,000  Level FlightAware ADS-B
Tue 06:39:36 AM 41.4970 3.8530 198° South 450 518 37,000  Level FlightAware ADS-B
Tue 06:40:15 AM 41.4170 3.8170 199° South 450 518 37,000  Level FlightAware ADS-B
Tue 06:40:59 AM 41.3310 3.7800 198° South 450 518 37,000 -68 Level FlightAware ADS-B
Tue 06:41:43 AM 41.2440 3.7410 199° South 449 517 36,900 -1,071 Descending FlightAware ADS-B
Tue 06:42:23 AM 41.1650 3.7060 198° South 451 519 35,500 -2,400 Descending FlightAware ADS-B
Tue 06:43:03 AM 41.0840 3.6710 198° South 449 517 33,700 -2,357 Descending FlightAware ADS-B
Tue 06:43:47 AM 40.9980 3.6340 198° South 441 507 32,200 -2,071 Descending FlightAware ADS-B
Tue 06:44:27 AM 40.9230 3.6010 198° South 431 496 30,800 -2,053 Descending FlightAware ADS-B
Tue 06:45:03 AM 40.8540 3.5710 198° South 422 486 29,600 -1,882 Descending FlightAware ADS-B
Tue 06:46:09 AM 40.7360 3.5210 198° South 404 465 27,600 -1,472 Descending FlightAware ADS-B
Tue 06:46:49 AM 40.6650 3.4900 198° South 407 468 27,000 -951 Descending FlightAware ADS-B
Tue 06:47:31 AM 40.5940 3.4480 204° Southwest 394 453 26,300 -1,024 Descending FlightAware ADS-B
Tue 06:48:11 AM 40.5280 3.4060 206° Southwest 391 450 25,600 -1,357 Descending FlightAware ADS-B
Tue 06:48:55 AM 40.4620 3.3510 212° Southwest 374 430 24,400 -1,884 Descending FlightAware ADS-B
Tue 06:49:37 AM 40.4130 3.2820 227° Southwest 368 423 22,900 -2,077 Descending FlightAware ADS-B
Tue 06:50:13 AM 40.3720 3.2250 227° Southwest 363 418 21,700 -1,953 Descending FlightAware ADS-B
Tue 06:51:03 AM 40.3140 3.1430 227° Southwest 357 411 20,100 -1,800 Descending FlightAware ADS-B
Tue 06:51:43 AM 40.2690 3.0840 225° Southwest 352 405 19,000 -1,821 Descending FlightAware ADS-B
Tue 06:51:59 AM 40.2460 3.0710 203° Southwest 357 411 18,400 -1,929 Descending FlightAware ADS-B
Tue 06:52:39 AM 40.1800 3.0720 179° South 353 406 17,200 -1,832 Descending FlightAware ADS-B
Tue 06:53:34 AM 40.0940 3.0790 176° South 336 387 15,500 -1,846 Descending FlightAware ADS-B
Tue 06:54:10 AM 40.0360 3.0830 177° South 341 392 14,400 -2,175 Descending FlightAware ADS-B
Tue 06:54:54 AM 39.9680 3.0860 178° South 321 369 12,600 -2,824 Descending FlightAware ADS-B
Tue 06:55:35 AM 39.9060 3.0890 178° South 324 373 10,400 -2,442 Descending FlightAware ADS-B
Tue 06:56:20 AM 39.8450 3.0930 177° South 292 336 9,100 -1,886 Descending FlightAware ADS-B
Tue 06:56:45 AM 39.8100 3.0950 177° South 289 333 8,200 -1,482 Descending FlightAware ADS-B
Tue 06:57:45 AM 39.7400 3.0890 184° South 237 273 7,000 -1,440 Descending FlightAware ADS-B
Tue 06:58:00 AM 39.7240 3.0820 199° South 226 260 6,400 -1,674 Descending FlightAware ADS-B
Tue 06:58:28 AM 39.7040 3.0700 205° Southwest 221 254 5,800 -1,171 Descending FlightAware ADS-B
Tue 06:58:41 AM 39.6920 3.0510 231° Southwest 213 245 5,600 -1,622 Descending FlightAware ADS-B
Tue 06:59:05 AM 39.6790 3.0240 238° Southwest 222 255 4,800 -1,667 Descending FlightAware ADS-B
Tue 06:59:35 AM 39.6630 2.9900 239° Southwest 215 247 4,100 -1,600 Descending FlightAware ADS-B
Tue 07:00:05 AM 39.6470 2.9570 238° Southwest 216 249 3,200 -1,300 Descending FlightAware ADS-B
Tue 07:00:35 AM 39.6320 2.9250 239° Southwest 201 231 2,800 -873 Descending FlightAware ADS-B
Tue 07:01:00 AM 39.6210 2.9000 240° Southwest 188 216 2,400 -960 Descending FlightAware ADS-B
Tue 07:01:25 AM 39.6100 2.8780 237° Southwest 177 204 2,000 -1,000 Descending FlightAware ADS-B
Tue 07:02:00 AM 39.5960 2.8470 240° Southwest 168 193 1,400 -900 Descending FlightAware ADS-B
Tue 07:02:25 AM 39.5870 2.8270 240° Southwest 139 160 1,100 -750 Descending FlightAware ADS-B
Tue 07:02:56 AM 39.5760 2.8050 237° Southwest 135 155 700 -750 Descending FlightAware ADS-B
Tue 07:03:21 AM 39.5680 2.7880 239° Southwest 131 151 400 -358 Descending FlightAware ADS-B
Tue 07:04:03 AM 39.5570 2.7650 238° Southwest 132 152 300 -143 Descending FlightAware ADS-B
Tue 07:06:00 AM 39.5517 2.7388 255° West  Level Estimated
Tue 07:07:00 AM 39.5517 2.7388 197° South  Level Estimated
Tue 07:08:00 AM 39.5517 2.7388 197° South  Level Estimated
Tue 07:09:00 AM 39.5517 2.7388 197° South  Level Estimated
Tue 07:10:00 AM 39.5517 2.7388 197° South  Level Estimated

Login

Don't have an account? Register now (free) for customized features, flight alerts, and more!